Ontario, OR (97914)

4:09 PM MST on February 09, 2016 (GMT -0700)
Ontario Municipal | | Change Station
CLOSE
Current Station
Airport
Location: Ontario,
Elevation: 2192 ft
Nearby Weather Stations

Elev 2192 ft 44.02 °N, 117.01 °W | Updated 16 minutes ago

Overcast
Overcast
37 °F
Feels Like 37 °F
N
0
Wind Variable Wind from North

Today
High -- | Low -- °F
--% Chance of Precip.
Yesterday
High -- | Low -- °F
Precip. -- in
Pressure 30.60 in
Visibility 10.0 miles
Clouds Overcast 2000 ft
Dew Point 31 °F
Humidity 79%
Rainfall 0.00 in
Snow Depth Not available.
7:56 AM 6:08 PM
New Moon, 2% visible
METAR KONO 092253Z AUTO 00000KT 10SM OVC020 03/M01 A3054 RMK AO2 SLP362 T00281006
Pressure 30.60 in
Visibility 10.0 miles
Clouds Overcast 2000 ft
Dew Point 31 °F
Humidity 79%
Rainfall 0.00 in
Snow Depth Not available.
7:56 AM 6:08 PM
New Moon, 2% visible
METAR KONO 092253Z AUTO 00000KT 10SM OVC020 03/M01 A3054 RMK AO2 SLP362 T00281006

10-Day Weather Forecast

Almanac

Astronomy

Feb. 09, 2016 Rise Set
Actual Time
Civil Twilight
Nautical Twilight
Astronomical Twilight
Moon
Length of Visible Light
Length of Day
Tomorrow will be .
, % of the Moon is Illuminated

Today's Extremes

State Highs State Lows

Community

WunderPhotos

Upload Photos

1,891,728 photos uploaded!

WunderBlog® & News

Nearby

Air Quality

  Air Quality AQ Index Pollutant
Not available.

Snow Depth

Station Depth Elevation

Earthquake Activity

City Distance Mag. Time & Date
Minimum magnitude displayed is 2.5.

Coastal Water Temperatures

Place Temperature

Stations

Nearby Weather Stations

Station Location Temp. Windchill Dew Point Humidity Wind Precip. Elev Updated Type
                   

Watches & Warnings

There are currently no watches in effect.